createdAt,value
2018-12-08T00:00:00.080Z,50.90
2018-12-08T00:02:28.727Z,51.40
2018-12-08T00:04:57.355Z,51.40
2018-12-08T00:07:26.037Z,51.40
2018-12-08T00:09:54.707Z,51.40
2018-12-08T00:12:23.345Z,51.40
2018-12-08T00:14:52.035Z,50.90
2018-12-08T00:17:20.738Z,51.00
2018-12-08T00:19:49.382Z,50.90
2018-12-08T00:22:17.986Z,51.40
2018-12-08T00:24:46.627Z,50.90
2018-12-08T00:27:15.252Z,51.40
2018-12-08T00:29:43.889Z,51.40
2018-12-08T00:32:12.537Z,50.90
2018-12-08T00:34:41.173Z,51.40
2018-12-08T00:37:09.801Z,51.50
2018-12-08T00:39:38.439Z,51.40
2018-12-08T00:42:07.106Z,51.40
2018-12-08T00:44:35.827Z,51.50
2018-12-08T00:47:04.488Z,51.50
2018-12-08T00:49:33.143Z,51.60
2018-12-08T00:52:01.809Z,51.50
2018-12-08T00:54:30.450Z,51.00
2018-12-08T00:56:59.111Z,51.50
2018-12-08T00:59:27.757Z,51.60
2018-12-08T01:01:56.372Z,51.10
2018-12-08T01:04:25.006Z,51.60
2018-12-08T01:06:53.677Z,51.60
2018-12-08T01:09:22.313Z,51.00
2018-12-08T01:11:50.917Z,51.60
2018-12-08T01:14:19.609Z,51.60
2018-12-08T01:16:48.274Z,51.00
2018-12-08T01:19:16.907Z,51.60
2018-12-08T01:21:45.542Z,51.10
2018-12-08T01:24:14.693Z,51.60
2018-12-08T01:26:43.350Z,51.60
2018-12-08T01:29:12.018Z,51.60
2018-12-08T01:31:40.649Z,51.20
2018-12-08T01:34:09.326Z,51.20
2018-12-08T01:36:38.047Z,51.20
2018-12-08T01:39:07.675Z,51.70
2018-12-08T01:41:36.421Z,51.20
2018-12-08T01:44:05.102Z,51.70
2018-12-08T01:46:33.785Z,51.30
2018-12-08T01:49:02.457Z,51.20
2018-12-08T01:51:31.842Z,51.70
2018-12-08T01:54:00.898Z,51.80
2018-12-08T01:56:29.632Z,51.80
2018-12-08T01:58:58.414Z,51.30
2018-12-08T02:01:27.177Z,51.80
2018-12-08T02:03:56.053Z,51.90
2018-12-08T02:06:24.779Z,51.80
2018-12-08T02:08:53.456Z,51.80
2018-12-08T02:11:25.123Z,51.90
2018-12-08T02:13:52.869Z,52.20
2018-12-08T02:16:21.600Z,51.80
2018-12-08T02:18:50.301Z,51.80
2018-12-08T02:21:18.974Z,51.80
2018-12-08T02:23:47.714Z,51.80
2018-12-08T02:26:17.177Z,51.80
2018-12-08T02:28:45.906Z,51.70
2018-12-08T02:31:14.674Z,51.60
2018-12-08T02:33:43.363Z,51.60
2018-12-08T02:36:12.547Z,51.60
2018-12-08T02:38:42.192Z,51.20
2018-12-08T02:41:11.320Z,51.80
2018-12-08T02:43:40.059Z,51.70
2018-12-08T02:46:08.739Z,51.80
2018-12-08T02:48:37.436Z,51.80
2018-12-08T02:51:06.237Z,51.70
2018-12-08T02:53:35.044Z,51.60
2018-12-08T02:56:03.817Z,51.70
2018-12-08T02:58:32.533Z,51.60
2018-12-08T03:01:01.285Z,51.60
2018-12-08T03:03:29.999Z,51.10
2018-12-08T03:05:58.697Z,51.70
2018-12-08T03:08:27.510Z,51.70
2018-12-08T03:10:56.199Z,51.10
2018-12-08T03:13:24.908Z,51.10
2018-12-08T03:15:53.579Z,51.60
2018-12-08T03:18:22.374Z,51.50
2018-12-08T03:20:51.028Z,50.90
2018-12-08T03:23:19.642Z,51.40
2018-12-08T03:25:48.272Z,51.10
2018-12-08T03:28:16.917Z,51.10
2018-12-08T03:30:45.611Z,51.50
2018-12-08T03:33:14.331Z,51.50
2018-12-08T03:35:42.935Z,51.50
2018-12-08T03:38:11.604Z,51.60
2018-12-08T03:40:40.251Z,51.60
2018-12-08T03:43:08.878Z,51.60
2018-12-08T03:45:37.558Z,51.10
2018-12-08T03:48:06.180Z,51.60
2018-12-08T03:50:34.840Z,51.00
2018-12-08T03:53:03.494Z,51.50
2018-12-08T03:55:32.132Z,51.50
2018-12-08T03:58:00.762Z,51.00
2018-12-08T04:00:29.395Z,51.00
2018-12-08T04:02:58.091Z,51.10
2018-12-08T04:05:26.802Z,51.60
2018-12-08T04:07:55.566Z,51.60
2018-12-08T04:10:24.245Z,51.10
2018-12-08T04:12:52.961Z,51.70
2018-12-08T04:15:21.645Z,51.20
2018-12-08T04:17:50.354Z,51.80
2018-12-08T04:20:19.172Z,51.70
2018-12-08T04:22:47.844Z,51.90
2018-12-08T04:25:16.499Z,51.30
2018-12-08T04:27:45.121Z,51.90
2018-12-08T04:30:13.761Z,51.40
2018-12-08T04:32:42.432Z,52.00
2018-12-08T04:35:11.043Z,51.50
2018-12-08T04:37:39.687Z,52.00
2018-12-08T04:40:08.310Z,52.00
2018-12-08T04:42:36.946Z,52.00
2018-12-08T04:45:06.176Z,51.80
2018-12-08T04:47:35.406Z,51.90
2018-12-08T04:50:04.602Z,51.40
2018-12-08T04:52:34.237Z,51.30
2018-12-08T04:55:02.885Z,51.90
2018-12-08T04:57:31.538Z,51.90
2018-12-08T05:00:00.210Z,51.80
2018-12-08T05:02:28.875Z,51.80
2018-12-08T05:04:57.523Z,51.80
2018-12-08T05:07:26.179Z,51.90
2018-12-08T05:09:54.829Z,51.90
2018-12-08T05:12:23.422Z,51.90
2018-12-08T05:14:52.057Z,52.00
2018-12-08T05:17:20.697Z,51.50
2018-12-08T05:19:49.388Z,52.00
2018-12-08T05:22:18.123Z,51.90
2018-12-08T05:24:47.567Z,51.50
2018-12-08T05:27:16.796Z,52.00
2018-12-08T05:29:45.490Z,51.50
2018-12-08T05:32:14.177Z,52.00
2018-12-08T05:34:42.864Z,52.00
2018-12-08T05:37:12.026Z,51.50
2018-12-08T05:39:40.685Z,52.00
2018-12-08T05:42:09.377Z,51.40
2018-12-08T05:44:38.054Z,52.00
2018-12-08T05:47:06.692Z,52.50
2018-12-08T05:49:35.370Z,51.90
2018-12-08T05:52:04.035Z,51.90
2018-12-08T05:54:32.694Z,51.80
2018-12-08T05:57:01.335Z,51.20
2018-12-08T05:59:29.987Z,51.80
2018-12-08T06:01:58.625Z,51.70
2018-12-08T06:04:27.278Z,51.80
2018-12-08T06:06:55.968Z,51.80
2018-12-08T06:09:24.597Z,51.30
2018-12-08T06:11:53.251Z,51.80
2018-12-08T06:14:21.906Z,51.30
2018-12-08T06:16:50.560Z,51.90
2018-12-08T06:19:19.167Z,51.80
2018-12-08T06:21:47.795Z,51.80
2018-12-08T06:24:16.462Z,51.40
2018-12-08T06:27:10.430Z,51.90
2018-12-08T06:29:39.514Z,52.00
2018-12-08T06:32:08.152Z,52.00
2018-12-08T06:34:36.810Z,51.40
2018-12-08T06:37:05.487Z,51.50
2018-12-08T06:39:34.158Z,52.20
2018-12-08T06:42:02.830Z,52.80
2018-12-08T06:44:31.489Z,54.00
2018-12-08T06:47:00.131Z,53.20
2018-12-08T06:49:28.738Z,53.20
2018-12-08T06:52:08.901Z,53.00
2018-12-08T06:54:52.100Z,52.90
2018-12-08T06:57:21.062Z,52.70
2018-12-08T07:00:22.151Z,52.70
2018-12-08T07:02:51.391Z,52.80
2018-12-08T07:05:20.061Z,52.50
2018-12-08T07:07:51.586Z,53.10
2018-12-08T07:10:21.053Z,53.20
2018-12-08T07:12:49.738Z,53.30
2018-12-08T07:15:23.083Z,53.30
2018-12-08T07:17:54.154Z,53.70
2018-12-08T07:20:22.942Z,53.60
2018-12-08T07:22:51.594Z,53.60
2018-12-08T07:25:21.142Z,53.70
2018-12-08T07:27:50.404Z,53.70
2018-12-08T07:30:22.890Z,53.70
2018-12-08T07:32:51.555Z,53.80
2018-12-08T07:35:20.183Z,53.70
2018-12-08T07:37:48.881Z,54.40
2018-12-08T07:40:17.621Z,53.70
2018-12-08T07:42:46.302Z,53.70
2018-12-08T07:45:15.233Z,52.90
2018-12-08T07:47:44.118Z,52.80
2018-12-08T07:50:12.781Z,53.30
2018-12-08T07:52:41.417Z,53.30
2018-12-08T07:55:10.118Z,52.60
2018-12-08T07:57:38.789Z,53.20
2018-12-08T08:00:10.859Z,53.10
2018-12-08T08:02:40.074Z,53.10
2018-12-08T08:05:09.576Z,53.20
2018-12-08T08:07:38.399Z,53.00
2018-12-08T08:10:09.684Z,53.00
2018-12-08T08:12:38.626Z,53.00
2018-12-08T08:15:09.303Z,52.40
2018-12-08T08:17:38.238Z,52.80
2018-12-08T08:20:09.315Z,52.70
2018-12-08T08:22:37.980Z,52.80
2018-12-08T08:25:08.254Z,52.70
2018-12-08T08:27:36.929Z,52.70
2018-12-08T08:30:06.783Z,52.80
2018-12-08T08:32:35.416Z,52.20
2018-12-08T08:35:04.313Z,52.70
2018-12-08T08:37:32.929Z,52.80
2018-12-08T08:40:01.565Z,52.70
2018-12-08T08:42:30.210Z,52.30
2018-12-08T08:44:58.844Z,52.80
2018-12-08T08:47:27.503Z,52.70
2018-12-08T08:49:56.205Z,52.30
2018-12-08T08:52:24.854Z,52.90
2018-12-08T08:54:53.494Z,52.80
2018-12-08T08:57:22.107Z,52.80
2018-12-08T08:59:50.769Z,52.80
2018-12-08T09:02:19.433Z,52.40
2018-12-08T09:04:48.136Z,52.80
2018-12-08T09:07:17.567Z,52.80
2018-12-08T09:09:46.757Z,52.80
2018-12-08T09:12:16.050Z,52.40
2018-12-08T09:14:44.706Z,52.50
2018-12-08T09:17:13.405Z,52.90
2018-12-08T09:19:42.542Z,53.20
2018-12-08T09:22:11.203Z,53.20
2018-12-08T09:24:39.906Z,52.60
2018-12-08T09:27:08.554Z,53.10
2018-12-08T09:29:37.229Z,52.40
2018-12-08T09:32:05.894Z,52.30
2018-12-08T09:34:34.547Z,52.80
2018-12-08T09:37:03.201Z,52.70
2018-12-08T09:39:32.222Z,52.70
2018-12-08T09:42:00.875Z,52.90
2018-12-08T09:44:29.496Z,52.20
2018-12-08T09:46:58.514Z,52.70
2018-12-08T09:49:27.188Z,52.60
2018-12-08T09:51:55.842Z,52.50
2018-12-08T09:54:24.492Z,52.50
2018-12-08T09:56:53.161Z,52.00
2018-12-08T09:59:21.833Z,52.50
2018-12-08T10:01:50.452Z,52.50
2018-12-08T10:04:23.524Z,52.00
2018-12-08T10:06:52.116Z,52.50
2018-12-08T10:09:20.758Z,54.40
2018-12-08T10:11:49.407Z,54.70
2018-12-08T10:14:18.050Z,52.90
2018-12-08T10:16:46.682Z,52.40
2018-12-08T10:19:15.328Z,52.90
2018-12-08T10:21:43.944Z,53.60
2018-12-08T10:24:12.569Z,55.90
2018-12-08T10:26:41.361Z,55.90
2018-12-08T10:29:10.032Z,55.70
2018-12-08T10:31:38.666Z,55.50
2018-12-08T10:34:07.318Z,55.50
2018-12-08T10:36:37.134Z,55.10
2018-12-08T10:39:07.867Z,55.60
2018-12-08T10:41:37.078Z,55.40
2018-12-08T10:44:05.721Z,56.00
2018-12-08T10:46:34.353Z,55.30
2018-12-08T10:49:05.347Z,55.90
2018-12-08T10:51:34.664Z,55.50
2018-12-08T10:54:06.300Z,55.90
2018-12-08T10:56:34.923Z,55.60
2018-12-08T10:59:03.526Z,55.40
2018-12-08T11:01:37.270Z,55.50
2018-12-08T11:04:05.937Z,55.50
2018-12-08T11:06:34.573Z,55.50
2018-12-08T11:09:03.337Z,54.90
2018-12-08T11:11:32.010Z,55.50
2018-12-08T11:14:00.701Z,55.50
2018-12-08T11:16:29.360Z,55.40
2018-12-08T11:18:58.036Z,55.30
2018-12-08T11:21:26.647Z,55.30
2018-12-08T11:23:55.285Z,55.20
2018-12-08T11:26:23.922Z,54.70
2018-12-08T11:28:52.553Z,54.50
2018-12-08T11:31:21.165Z,55.10
2018-12-08T11:33:49.806Z,55.00
2018-12-08T11:36:18.474Z,55.00
2018-12-08T11:38:47.118Z,55.00
2018-12-08T11:41:15.729Z,54.90
2018-12-08T11:43:44.348Z,54.90
2018-12-08T11:46:13.119Z,54.70
2018-12-08T11:48:41.782Z,54.80
2018-12-08T11:51:10.436Z,54.10
2018-12-08T11:53:39.146Z,54.50
2018-12-08T11:56:07.938Z,54.20
2018-12-08T11:58:36.579Z,53.90
2018-12-08T12:01:05.218Z,52.90
2018-12-08T12:03:33.889Z,53.30
2018-12-08T12:06:02.490Z,53.10
2018-12-08T12:08:31.169Z,53.20
2018-12-08T12:10:59.955Z,53.20
2018-12-08T12:13:28.626Z,52.50
2018-12-08T12:15:57.274Z,52.20
2018-12-08T12:18:25.923Z,52.80
2018-12-08T12:20:54.565Z,52.50
2018-12-08T12:23:23.270Z,52.50
2018-12-08T12:25:52.001Z,52.30
2018-12-08T12:28:21.370Z,52.30
2018-12-08T12:30:50.332Z,52.30
2018-12-08T12:33:19.002Z,52.20
2018-12-08T12:35:47.601Z,51.70
2018-12-08T12:38:16.464Z,51.70
2018-12-08T12:40:45.726Z,52.00
2018-12-08T12:43:14.457Z,51.90
2018-12-08T12:45:43.189Z,51.80
2018-12-08T12:48:11.873Z,51.70
2018-12-08T12:50:40.489Z,51.50
2018-12-08T12:53:11.196Z,51.20
2018-12-08T12:55:39.807Z,50.90
2018-12-08T12:58:08.498Z,51.20
2018-12-08T13:00:37.146Z,51.30
2018-12-08T13:03:05.810Z,51.10
2018-12-08T13:05:34.429Z,51.20
2018-12-08T13:08:03.084Z,51.10
2018-12-08T13:10:31.743Z,51.10
2018-12-08T13:13:00.361Z,51.60
2018-12-08T13:15:29.030Z,50.60
2018-12-08T13:17:57.729Z,51.10
2018-12-08T13:20:26.369Z,51.30
2018-12-08T13:22:55.177Z,51.10
2018-12-08T13:25:25.914Z,51.20
2018-12-08T13:27:54.561Z,51.20
2018-12-08T13:30:23.218Z,51.20
2018-12-08T13:32:51.835Z,51.20
2018-12-08T13:35:31.557Z,51.10
2018-12-08T13:38:00.195Z,51.20
2018-12-08T13:40:28.815Z,51.20
2018-12-08T13:42:57.584Z,51.20
2018-12-08T13:45:26.385Z,50.70
2018-12-08T13:47:55.040Z,51.20
2018-12-08T13:50:23.950Z,50.60
2018-12-08T13:52:52.654Z,51.10
2018-12-08T13:55:21.317Z,51.20
2018-12-08T13:57:49.963Z,51.50
2018-12-08T14:00:18.647Z,51.50
2018-12-08T14:02:47.260Z,51.50
2018-12-08T14:05:15.886Z,51.00
2018-12-08T14:07:44.510Z,51.50
2018-12-08T14:10:13.296Z,51.60
2018-12-08T14:12:41.949Z,51.00
2018-12-08T14:15:10.807Z,51.60
2018-12-08T14:17:39.456Z,51.50
2018-12-08T14:20:23.765Z,51.50
2018-12-08T14:22:52.449Z,51.50
2018-12-08T14:25:21.142Z,51.60
2018-12-08T14:27:49.821Z,51.50
2018-12-08T14:30:18.551Z,51.50
2018-12-08T14:32:47.373Z,52.10
2018-12-08T14:35:15.997Z,51.70
2018-12-08T14:37:44.670Z,51.50
2018-12-08T14:40:14.215Z,51.50
2018-12-08T14:42:44.394Z,50.90
2018-12-08T14:45:13.130Z,51.40
2018-12-08T14:47:41.773Z,51.40
2018-12-08T14:50:11.540Z,51.30
2018-12-08T14:52:40.170Z,50.90
2018-12-08T14:55:10.652Z,51.40
2018-12-08T14:57:41.698Z,51.40
2018-12-08T15:00:12.105Z,51.30
2018-12-08T15:02:41.486Z,51.20
2018-12-08T15:05:12.369Z,51.30
2018-12-08T15:07:41.018Z,51.30
2018-12-08T15:10:11.521Z,51.20
2018-12-08T15:12:40.118Z,51.20
2018-12-08T15:15:09.963Z,51.20
2018-12-08T15:17:38.629Z,51.20
2018-12-08T15:20:08.988Z,51.20
2018-12-08T15:22:37.773Z,50.80
2018-12-08T15:25:08.333Z,51.30
2018-12-08T15:27:38.390Z,51.30
2018-12-08T15:30:08.475Z,51.30
2018-12-08T15:32:37.320Z,50.80
2018-12-08T15:35:11.027Z,51.40
2018-12-08T15:37:41.020Z,51.40
2018-12-08T15:40:10.427Z,51.40
2018-12-08T15:42:39.835Z,51.40
2018-12-08T15:45:10.489Z,51.40
2018-12-08T15:47:41.191Z,51.40
2018-12-08T15:50:12.254Z,51.40
2018-12-08T15:52:40.958Z,51.30
2018-12-08T15:55:09.576Z,51.30
2018-12-08T15:57:38.182Z,51.30
2018-12-08T16:00:09.618Z,51.20
2018-12-08T16:02:38.598Z,51.20
2018-12-08T16:07:35.766Z,50.70
2018-12-08T16:10:04.422Z,51.20
2018-12-08T16:12:33.066Z,51.20
2018-12-08T16:15:01.767Z,51.10
2018-12-08T16:17:30.434Z,51.10
2018-12-08T16:19:59.065Z,51.10
2018-12-08T16:22:27.724Z,51.10
2018-12-08T16:24:56.430Z,51.10
2018-12-08T16:27:25.106Z,50.50
2018-12-08T16:29:53.737Z,50.90
2018-12-08T16:32:22.367Z,50.40
2018-12-08T16:34:51.008Z,49.60
2018-12-08T16:37:19.669Z,49.90
2018-12-08T16:39:48.718Z,49.70
2018-12-08T16:42:18.338Z,49.60
2018-12-08T16:44:47.279Z,49.60
2018-12-08T16:47:16.197Z,49.50
2018-12-08T16:49:44.800Z,50.00
2018-12-08T16:52:13.496Z,52.00
2018-12-08T16:54:42.141Z,51.70
2018-12-08T16:57:10.765Z,51.70
2018-12-08T16:59:39.397Z,51.70
2018-12-08T17:02:08.071Z,52.00
2018-12-08T17:04:36.722Z,52.20
2018-12-08T17:07:05.357Z,52.30
2018-12-08T17:09:34.032Z,52.30
2018-12-08T17:12:02.691Z,52.30
2018-12-08T17:14:31.330Z,52.30
2018-12-08T17:16:59.966Z,52.40
2018-12-08T17:19:28.658Z,52.40
2018-12-08T17:21:57.299Z,52.40
2018-12-08T17:24:25.905Z,52.40
2018-12-08T17:26:54.595Z,51.80
2018-12-08T17:29:23.250Z,51.80
2018-12-08T17:31:51.900Z,52.40
2018-12-08T17:34:20.588Z,52.30
2018-12-08T17:36:49.305Z,52.40
2018-12-08T17:39:17.930Z,52.40
2018-12-08T17:41:46.606Z,52.00
2018-12-08T17:44:15.306Z,52.50
2018-12-08T17:46:44.033Z,52.10
2018-12-08T17:49:12.695Z,52.00
2018-12-08T17:54:09.994Z,52.00
2018-12-08T17:56:38.658Z,52.60
2018-12-08T17:59:07.273Z,52.50
2018-12-08T18:01:35.941Z,52.50
2018-12-08T18:04:04.569Z,52.60
2018-12-08T18:06:33.191Z,52.50
2018-12-08T18:09:01.863Z,52.50
2018-12-08T18:11:30.518Z,52.60
2018-12-08T18:13:59.168Z,50.80
2018-12-08T18:16:27.845Z,50.50
2018-12-08T18:18:56.510Z,50.10
2018-12-08T18:21:25.218Z,48.80
2018-12-08T18:23:53.991Z,49.20
2018-12-08T18:26:22.669Z,49.00
2018-12-08T18:28:52.615Z,48.70
2018-12-08T18:31:21.304Z,48.40
2018-12-08T18:33:49.993Z,48.30
2018-12-08T18:36:19.320Z,48.70
2018-12-08T18:38:47.955Z,48.90
2018-12-08T18:41:16.615Z,48.50
2018-12-08T18:43:45.255Z,48.30
2018-12-08T18:46:13.891Z,48.20
2018-12-08T18:48:42.571Z,48.10
2018-12-08T18:51:11.241Z,48.00
2018-12-08T18:53:39.882Z,48.10
2018-12-08T18:56:08.542Z,48.00
2018-12-08T18:58:37.200Z,47.40
2018-12-08T19:01:05.818Z,48.00
2018-12-08T19:03:34.473Z,47.70
2018-12-08T19:06:03.106Z,47.70
2018-12-08T19:08:32.875Z,47.70
2018-12-08T19:11:01.585Z,47.60
2018-12-08T19:13:30.197Z,47.50
2018-12-08T19:15:58.852Z,47.40
2018-12-08T19:18:27.533Z,47.50
2018-12-08T19:20:56.148Z,47.50
2018-12-08T19:23:24.934Z,47.40
2018-12-08T19:25:53.600Z,47.40
2018-12-08T19:28:22.243Z,47.40
2018-12-08T19:30:50.873Z,47.10
2018-12-08T19:33:19.495Z,47.40
2018-12-08T19:35:48.348Z,47.40
2018-12-08T19:38:16.977Z,47.40
2018-12-08T19:40:45.594Z,47.60
2018-12-08T19:43:14.325Z,47.50
2018-12-08T19:45:42.991Z,47.60
2018-12-08T19:48:11.694Z,47.70
2018-12-08T19:53:09.018Z,47.30
2018-12-08T19:55:37.694Z,47.70
2018-12-08T19:58:06.334Z,47.70
2018-12-08T20:00:34.997Z,47.80
2018-12-08T20:03:03.689Z,47.30
2018-12-08T20:05:32.393Z,47.90
2018-12-08T20:08:01.091Z,47.90
2018-12-08T20:10:29.754Z,47.90
2018-12-08T20:12:58.435Z,47.90
2018-12-08T20:15:27.118Z,47.90
2018-12-08T20:17:55.759Z,47.30
2018-12-08T20:20:24.538Z,48.10
2018-12-08T20:22:53.300Z,48.20
2018-12-08T20:25:23.401Z,48.20
2018-12-08T20:27:52.738Z,48.10
2018-12-08T20:30:21.390Z,48.10
2018-12-08T20:32:50.270Z,48.10
2018-12-08T20:35:19.854Z,48.00
2018-12-08T20:37:48.903Z,48.10
2018-12-08T20:40:18.082Z,48.10
2018-12-08T20:42:47.010Z,48.10
2018-12-08T20:45:15.671Z,48.10
2018-12-08T20:47:44.310Z,47.50
2018-12-08T20:50:12.981Z,48.10
2018-12-08T20:52:41.618Z,48.20
2018-12-08T20:55:10.305Z,48.10
2018-12-08T20:57:39.022Z,47.60
2018-12-08T21:00:07.688Z,48.10
2018-12-08T21:02:36.388Z,47.60
2018-12-08T21:05:05.076Z,48.10
2018-12-08T21:07:33.713Z,48.10
2018-12-08T21:10:02.342Z,48.10
2018-12-08T21:12:30.997Z,48.20
2018-12-08T21:14:59.757Z,48.10
2018-12-08T21:17:28.638Z,48.10
2018-12-08T21:19:57.279Z,48.20
2018-12-08T21:22:25.969Z,48.70
2018-12-08T21:24:55.439Z,48.20
2018-12-08T21:27:24.146Z,48.20
2018-12-08T21:29:52.976Z,48.30
2018-12-08T21:32:21.613Z,47.70
2018-12-08T21:34:50.205Z,48.30
2018-12-08T21:37:18.850Z,48.30
2018-12-08T21:39:47.486Z,48.30
2018-12-08T21:42:16.111Z,48.30
2018-12-08T21:44:44.738Z,48.30
2018-12-08T21:47:13.414Z,48.30
2018-12-08T21:49:42.030Z,48.30
2018-12-08T21:52:10.853Z,47.80
2018-12-08T21:54:39.516Z,48.40
2018-12-08T21:57:08.202Z,48.70
2018-12-08T21:59:36.864Z,48.60
2018-12-08T22:02:05.489Z,48.60
2018-12-08T22:04:34.100Z,48.70
2018-12-08T22:07:02.723Z,48.80
2018-12-08T22:09:31.321Z,49.00
2018-12-08T22:11:59.969Z,49.00
2018-12-08T22:14:28.593Z,49.00
2018-12-08T22:17:01.706Z,49.10
2018-12-08T22:19:35.687Z,49.00
2018-12-08T22:22:04.325Z,48.90
2018-12-08T22:27:01.273Z,48.40
2018-12-08T22:29:29.970Z,48.30
2018-12-08T22:31:58.575Z,48.80
2018-12-08T22:34:27.248Z,48.80
2018-12-08T22:36:55.846Z,48.80
2018-12-08T22:39:24.495Z,48.80
2018-12-08T22:41:53.266Z,48.70
2018-12-08T22:44:21.902Z,49.00
2018-12-08T22:46:50.549Z,48.70
2018-12-08T22:49:19.190Z,48.70
2018-12-08T22:51:47.820Z,48.80
2018-12-08T22:54:17.399Z,48.80
2018-12-08T22:56:46.084Z,48.70
2018-12-08T22:59:14.753Z,48.70
2018-12-08T23:01:43.406Z,48.70
2018-12-08T23:04:12.338Z,48.70
2018-12-08T23:06:41.060Z,48.10
2018-12-08T23:09:09.725Z,48.70
2018-12-08T23:11:38.363Z,48.70
2018-12-08T23:14:07.042Z,48.70
2018-12-08T23:16:35.694Z,48.70
2018-12-08T23:19:04.331Z,48.80
2018-12-08T23:21:32.976Z,48.70
2018-12-08T23:24:01.621Z,48.60
2018-12-08T23:26:30.229Z,48.10
2018-12-08T23:28:58.892Z,48.70
2018-12-08T23:31:28.221Z,48.20
2018-12-08T23:33:56.838Z,48.70
2018-12-08T23:36:25.507Z,48.60
2018-12-08T23:38:54.170Z,48.80
2018-12-08T23:41:22.810Z,48.70
2018-12-08T23:43:51.462Z,48.70
2018-12-08T23:46:20.086Z,48.10
2018-12-08T23:48:48.726Z,48.70
2018-12-08T23:51:18.565Z,49.30
2018-12-08T23:53:47.535Z,49.70
2018-12-08T23:56:16.215Z,50.00
2018-12-08T23:58:44.907Z,50.20
